sensor_id;sensor_type;location;lat;lon;timestamp;temperature;humidity
31455;DHT22;18084;53.028;8.834;2024-03-06T00:02:23;4.10;76.60
31455;DHT22;18084;53.028;8.834;2024-03-06T00:04:48;4.10;76.80
31455;DHT22;18084;53.028;8.834;2024-03-06T00:07:13;4.10;76.70
31455;DHT22;18084;53.028;8.834;2024-03-06T00:09:39;4.10;76.70
31455;DHT22;18084;53.028;8.834;2024-03-06T00:12:05;4.10;76.70
31455;DHT22;18084;53.028;8.834;2024-03-06T00:14:31;4.10;76.60
31455;DHT22;18084;53.028;8.834;2024-03-06T00:16:56;4.00;76.50
31455;DHT22;18084;53.028;8.834;2024-03-06T00:19:22;4.10;76.80
31455;DHT22;18084;53.028;8.834;2024-03-06T00:21:48;4.10;77.00
31455;DHT22;18084;53.028;8.834;2024-03-06T00:24:15;4.10;77.20
31455;DHT22;18084;53.028;8.834;2024-03-06T00:26:41;4.10;77.10
31455;DHT22;18084;53.028;8.834;2024-03-06T00:29:08;4.10;76.90
31455;DHT22;18084;53.028;8.834;2024-03-06T00:31:33;4.00;77.30
31455;DHT22;18084;53.028;8.834;2024-03-06T00:33:59;4.10;77.30
31455;DHT22;18084;53.028;8.834;2024-03-06T00:36:25;4.10;77.10
31455;DHT22;18084;53.028;8.834;2024-03-06T00:38:50;4.10;77.30
31455;DHT22;18084;53.028;8.834;2024-03-06T00:41:16;4.10;77.30
31455;DHT22;18084;53.028;8.834;2024-03-06T00:43:41;4.10;77.50
31455;DHT22;18084;53.028;8.834;2024-03-06T00:46:07;4.10;77.40
31455;DHT22;18084;53.028;8.834;2024-03-06T00:48:32;4.10;77.30
31455;DHT22;18084;53.028;8.834;2024-03-06T00:50:58;4.10;77.30
31455;DHT22;18084;53.028;8.834;2024-03-06T00:53:23;4.10;77.40
31455;DHT22;18084;53.028;8.834;2024-03-06T00:55:55;4.10;77.50
31455;DHT22;18084;53.028;8.834;2024-03-06T00:58:52;4.10;77.40
31455;DHT22;18084;53.028;8.834;2024-03-06T01:01:23;4.10;77.30
31455;DHT22;18084;53.028;8.834;2024-03-06T01:03:52;4.10;77.20
31455;DHT22;18084;53.028;8.834;2024-03-06T01:06:17;4.10;77.40
31455;DHT22;18084;53.028;8.834;2024-03-06T01:08:43;4.10;77.30
31455;DHT22;18084;53.028;8.834;2024-03-06T01:11:08;4.00;77.30
31455;DHT22;18084;53.028;8.834;2024-03-06T01:13:35;4.10;77.60
31455;DHT22;18084;53.028;8.834;2024-03-06T01:16:00;4.00;77.70
31455;DHT22;18084;53.028;8.834;2024-03-06T01:18:26;4.00;77.70
31455;DHT22;18084;53.028;8.834;2024-03-06T01:20:52;4.00;77.60
31455;DHT22;18084;53.028;8.834;2024-03-06T01:23:17;4.10;77.80
31455;DHT22;18084;53.028;8.834;2024-03-06T01:25:43;4.10;77.80
31455;DHT22;18084;53.028;8.834;2024-03-06T01:28:08;4.00;77.70
31455;DHT22;18084;53.028;8.834;2024-03-06T01:30:34;4.00;77.70
31455;DHT22;18084;53.028;8.834;2024-03-06T01:32:59;4.00;77.70
31455;DHT22;18084;53.028;8.834;2024-03-06T01:35:25;4.00;77.60
31455;DHT22;18084;53.028;8.834;2024-03-06T01:37:51;4.00;77.70
31455;DHT22;18084;53.028;8.834;2024-03-06T01:40:16;4.00;77.90
31455;DHT22;18084;53.028;8.834;2024-03-06T01:42:42;4.00;77.90
31455;DHT22;18084;53.028;8.834;2024-03-06T01:45:08;4.00;78.00
31455;DHT22;18084;53.028;8.834;2024-03-06T01:47:34;4.00;77.80
31455;DHT22;18084;53.028;8.834;2024-03-06T01:49:59;4.00;77.90
31455;DHT22;18084;53.028;8.834;2024-03-06T01:52:28;4.00;78.00
31455;DHT22;18084;53.028;8.834;2024-03-06T01:54:54;4.00;77.80
31455;DHT22;18084;53.028;8.834;2024-03-06T01:57:21;4.00;77.80
31455;DHT22;18084;53.028;8.834;2024-03-06T01:59:48;3.90;77.90
31455;DHT22;18084;53.028;8.834;2024-03-06T02:02:13;4.00;77.70
31455;DHT22;18084;53.028;8.834;2024-03-06T02:04:39;4.00;77.70
31455;DHT22;18084;53.028;8.834;2024-03-06T02:07:09;3.90;78.10
31455;DHT22;18084;53.028;8.834;2024-03-06T02:09:38;4.00;77.60
31455;DHT22;18084;53.028;8.834;2024-03-06T02:12:05;4.00;77.70
31455;DHT22;18084;53.028;8.834;2024-03-06T02:14:35;3.90;77.60
31455;DHT22;18084;53.028;8.834;2024-03-06T02:17:00;3.90;77.90
31455;DHT22;18084;53.028;8.834;2024-03-06T02:19:37;4.00;77.90
31455;DHT22;18084;53.028;8.834;2024-03-06T02:22:03;4.00;77.90
31455;DHT22;18084;53.028;8.834;2024-03-06T02:24:29;3.90;77.70
31455;DHT22;18084;53.028;8.834;2024-03-06T02:26:56;3.90;77.40
31455;DHT22;18084;53.028;8.834;2024-03-06T02:29:23;4.00;77.60
31455;DHT22;18084;53.028;8.834;2024-03-06T02:31:49;4.00;77.80
31455;DHT22;18084;53.028;8.834;2024-03-06T02:34:14;4.00;77.60
31455;DHT22;18084;53.028;8.834;2024-03-06T02:36:40;3.90;77.70
31455;DHT22;18084;53.028;8.834;2024-03-06T02:39:05;3.90;77.80
31455;DHT22;18084;53.028;8.834;2024-03-06T02:41:35;3.90;77.80
31455;DHT22;18084;53.028;8.834;2024-03-06T02:44:01;3.90;77.50
31455;DHT22;18084;53.028;8.834;2024-03-06T02:46:27;3.90;77.50
31455;DHT22;18084;53.028;8.834;2024-03-06T02:48:52;3.90;77.40
31455;DHT22;18084;53.028;8.834;2024-03-06T02:51:19;4.00;77.40
31455;DHT22;18084;53.028;8.834;2024-03-06T02:53:45;3.90;77.40
31455;DHT22;18084;53.028;8.834;2024-03-06T02:56:17;4.00;77.70
31455;DHT22;18084;53.028;8.834;2024-03-06T02:58:42;3.90;77.90
31455;DHT22;18084;53.028;8.834;2024-03-06T03:01:08;3.90;77.50
31455;DHT22;18084;53.028;8.834;2024-03-06T03:03:34;3.90;77.40
31455;DHT22;18084;53.028;8.834;2024-03-06T03:06:00;3.90;77.60
31455;DHT22;18084;53.028;8.834;2024-03-06T03:08:26;3.90;77.50
31455;DHT22;18084;53.028;8.834;2024-03-06T03:10:51;3.90;77.60
31455;DHT22;18084;53.028;8.834;2024-03-06T03:13:17;3.90;77.90
31455;DHT22;18084;53.028;8.834;2024-03-06T03:15:42;3.90;77.60
31455;DHT22;18084;53.028;8.834;2024-03-06T03:18:08;3.90;77.60
31455;DHT22;18084;53.028;8.834;2024-03-06T03:20:34;3.90;77.80
31455;DHT22;18084;53.028;8.834;2024-03-06T03:23:01;3.80;77.70
31455;DHT22;18084;53.028;8.834;2024-03-06T03:25:27;3.90;77.60
31455;DHT22;18084;53.028;8.834;2024-03-06T03:27:52;3.90;77.70
31455;DHT22;18084;53.028;8.834;2024-03-06T03:30:18;3.90;77.70
31455;DHT22;18084;53.028;8.834;2024-03-06T03:32:50;3.90;77.70
31455;DHT22;18084;53.028;8.834;2024-03-06T03:35:15;3.80;77.60
31455;DHT22;18084;53.028;8.834;2024-03-06T03:37:42;3.90;77.90
31455;DHT22;18084;53.028;8.834;2024-03-06T03:40:15;3.80;77.90
31455;DHT22;18084;53.028;8.834;2024-03-06T03:42:41;3.80;77.80
31455;DHT22;18084;53.028;8.834;2024-03-06T03:45:09;3.80;77.80
31455;DHT22;18084;53.028;8.834;2024-03-06T03:47:34;3.80;77.80
31455;DHT22;18084;53.028;8.834;2024-03-06T03:50:00;3.80;77.90
31455;DHT22;18084;53.028;8.834;2024-03-06T03:52:25;3.80;78.00
31455;DHT22;18084;53.028;8.834;2024-03-06T03:54:51;3.80;78.10
31455;DHT22;18084;53.028;8.834;2024-03-06T03:57:17;3.80;78.00
31455;DHT22;18084;53.028;8.834;2024-03-06T03:59:42;3.80;78.00
31455;DHT22;18084;53.028;8.834;2024-03-06T04:02:08;3.80;78.00
31455;DHT22;18084;53.028;8.834;2024-03-06T04:04:34;3.80;78.10
31455;DHT22;18084;53.028;8.834;2024-03-06T04:07:00;3.80;78.20
31455;DHT22;18084;53.028;8.834;2024-03-06T04:09:27;3.80;78.20
31455;DHT22;18084;53.028;8.834;2024-03-06T04:11:53;3.80;78.40
31455;DHT22;18084;53.028;8.834;2024-03-06T04:14:19;3.70;78.10
31455;DHT22;18084;53.028;8.834;2024-03-06T04:16:45;3.80;78.30
31455;DHT22;18084;53.028;8.834;2024-03-06T04:19:11;3.80;78.20
31455;DHT22;18084;53.028;8.834;2024-03-06T04:21:46;3.80;78.20
31455;DHT22;18084;53.028;8.834;2024-03-06T04:24:11;3.70;78.20
31455;DHT22;18084;53.028;8.834;2024-03-06T04:26:37;3.80;78.10
31455;DHT22;18084;53.028;8.834;2024-03-06T04:29:02;3.80;78.20
31455;DHT22;18084;53.028;8.834;2024-03-06T04:31:28;3.80;78.10
31455;DHT22;18084;53.028;8.834;2024-03-06T04:33:54;3.80;78.10
31455;DHT22;18084;53.028;8.834;2024-03-06T04:36:19;3.80;78.10
31455;DHT22;18084;53.028;8.834;2024-03-06T04:38:45;3.80;77.90
31455;DHT22;18084;53.028;8.834;2024-03-06T04:41:10;3.80;78.20
31455;DHT22;18084;53.028;8.834;2024-03-06T04:43:36;3.80;78.20
31455;DHT22;18084;53.028;8.834;2024-03-06T04:46:02;3.80;78.10
31455;DHT22;18084;53.028;8.834;2024-03-06T04:48:28;3.80;78.40
31455;DHT22;18084;53.028;8.834;2024-03-06T04:50:53;3.80;78.40
31455;DHT22;18084;53.028;8.834;2024-03-06T04:53:19;3.80;78.30
31455;DHT22;18084;53.028;8.834;2024-03-06T04:55:45;3.80;78.60
31455;DHT22;18084;53.028;8.834;2024-03-06T04:58:11;3.80;78.70
31455;DHT22;18084;53.028;8.834;2024-03-06T05:00:37;3.70;78.60
31455;DHT22;18084;53.028;8.834;2024-03-06T05:03:03;3.70;78.70
31455;DHT22;18084;53.028;8.834;2024-03-06T05:05:28;3.70;78.70
31455;DHT22;18084;53.028;8.834;2024-03-06T05:07:55;3.60;78.60
31455;DHT22;18084;53.028;8.834;2024-03-06T05:10:21;3.60;78.70
31455;DHT22;18084;53.028;8.834;2024-03-06T05:12:46;3.60;78.60
31455;DHT22;18084;53.028;8.834;2024-03-06T05:15:12;3.50;78.90
31455;DHT22;18084;53.028;8.834;2024-03-06T05:17:38;3.50;79.20
31455;DHT22;18084;53.028;8.834;2024-03-06T05:20:04;3.40;79.00
31455;DHT22;18084;53.028;8.834;2024-03-06T05:22:30;3.20;79.20
31455;DHT22;18084;53.028;8.834;2024-03-06T05:24:56;3.10;79.20
31455;DHT22;18084;53.028;8.834;2024-03-06T05:27:23;3.10;79.40
31455;DHT22;18084;53.028;8.834;2024-03-06T05:29:48;3.00;79.50
31455;DHT22;18084;53.028;8.834;2024-03-06T05:32:14;3.00;79.70
31455;DHT22;18084;53.028;8.834;2024-03-06T05:34:39;3.00;79.90
31455;DHT22;18084;53.028;8.834;2024-03-06T05:37:05;3.00;79.80
31455;DHT22;18084;53.028;8.834;2024-03-06T05:39:31;3.10;79.90
31455;DHT22;18084;53.028;8.834;2024-03-06T05:42:15;3.00;79.80
31455;DHT22;18084;53.028;8.834;2024-03-06T05:44:40;3.10;79.80
31455;DHT22;18084;53.028;8.834;2024-03-06T05:47:06;3.00;79.90
31455;DHT22;18084;53.028;8.834;2024-03-06T05:49:32;3.00;79.80
31455;DHT22;18084;53.028;8.834;2024-03-06T05:51:58;3.00;79.70
31455;DHT22;18084;53.028;8.834;2024-03-06T05:54:24;3.10;79.80
31455;DHT22;18084;53.028;8.834;2024-03-06T05:56:51;3.00;79.60
31455;DHT22;18084;53.028;8.834;2024-03-06T05:59:17;3.00;79.70
31455;DHT22;18084;53.028;8.834;2024-03-06T06:01:43;3.00;79.80
31455;DHT22;18084;53.028;8.834;2024-03-06T06:04:10;3.00;79.60
31455;DHT22;18084;53.028;8.834;2024-03-06T06:06:36;3.00;79.80
31455;DHT22;18084;53.028;8.834;2024-03-06T06:09:01;3.00;79.60
31455;DHT22;18084;53.028;8.834;2024-03-06T06:11:30;2.90;79.70
31455;DHT22;18084;53.028;8.834;2024-03-06T06:13:56;2.90;79.90
31455;DHT22;18084;53.028;8.834;2024-03-06T06:16:21;2.90;79.80
31455;DHT22;18084;53.028;8.834;2024-03-06T06:18:47;3.00;80.10
31455;DHT22;18084;53.028;8.834;2024-03-06T06:21:13;3.00;79.80
31455;DHT22;18084;53.028;8.834;2024-03-06T06:23:41;3.00;79.90
31455;DHT22;18084;53.028;8.834;2024-03-06T06:26:08;2.90;79.70
31455;DHT22;18084;53.028;8.834;2024-03-06T06:28:36;3.00;79.70
31455;DHT22;18084;53.028;8.834;2024-03-06T06:31:05;2.90;79.90
31455;DHT22;18084;53.028;8.834;2024-03-06T06:33:30;2.90;79.80
31455;DHT22;18084;53.028;8.834;2024-03-06T06:35:56;2.90;79.90
31455;DHT22;18084;53.028;8.834;2024-03-06T06:38:22;2.90;79.70
31455;DHT22;18084;53.028;8.834;2024-03-06T06:40:47;2.90;79.70
31455;DHT22;18084;53.028;8.834;2024-03-06T06:43:13;3.00;79.60
31455;DHT22;18084;53.028;8.834;2024-03-06T06:45:40;2.90;79.80
31455;DHT22;18084;53.028;8.834;2024-03-06T06:48:06;3.00;79.80
31455;DHT22;18084;53.028;8.834;2024-03-06T06:50:32;2.90;79.90
31455;DHT22;18084;53.028;8.834;2024-03-06T06:52:59;2.90;79.90
31455;DHT22;18084;53.028;8.834;2024-03-06T06:55:24;2.90;80.00
31455;DHT22;18084;53.028;8.834;2024-03-06T06:57:50;2.90;80.00
31455;DHT22;18084;53.028;8.834;2024-03-06T07:00:16;2.90;80.10
31455;DHT22;18084;53.028;8.834;2024-03-06T07:02:44;2.90;80.20
31455;DHT22;18084;53.028;8.834;2024-03-06T07:07:38;3.00;80.10
31455;DHT22;18084;53.028;8.834;2024-03-06T07:10:04;3.00;79.90
31455;DHT22;18084;53.028;8.834;2024-03-06T07:12:31;3.10;79.70
31455;DHT22;18084;53.028;8.834;2024-03-06T07:14:57;3.20;79.70
31455;DHT22;18084;53.028;8.834;2024-03-06T07:17:22;3.20;79.60
31455;DHT22;18084;53.028;8.834;2024-03-06T07:19:48;3.20;79.60
31455;DHT22;18084;53.028;8.834;2024-03-06T07:22:14;3.20;79.80
31455;DHT22;18084;53.028;8.834;2024-03-06T07:24:40;3.20;79.80
31455;DHT22;18084;53.028;8.834;2024-03-06T07:27:07;3.20;79.60
31455;DHT22;18084;53.028;8.834;2024-03-06T07:29:34;3.20;79.60
31455;DHT22;18084;53.028;8.834;2024-03-06T07:32:00;3.20;79.40
31455;DHT22;18084;53.028;8.834;2024-03-06T07:34:26;3.40;79.90
31455;DHT22;18084;53.028;8.834;2024-03-06T07:36:52;3.30;79.50
31455;DHT22;18084;53.028;8.834;2024-03-06T07:39:19;3.40;79.50
31455;DHT22;18084;53.028;8.834;2024-03-06T07:41:45;3.50;79.40
31455;DHT22;18084;53.028;8.834;2024-03-06T07:44:11;3.50;79.10
31455;DHT22;18084;53.028;8.834;2024-03-06T07:46:37;3.50;79.20
31455;DHT22;18084;53.028;8.834;2024-03-06T07:49:05;3.60;79.20
31455;DHT22;18084;53.028;8.834;2024-03-06T07:51:34;3.60;78.70
31455;DHT22;18084;53.028;8.834;2024-03-06T07:54:01;3.60;78.70
31455;DHT22;18084;53.028;8.834;2024-03-06T07:56:27;3.60;78.60
31455;DHT22;18084;53.028;8.834;2024-03-06T07:58:53;3.60;78.70
31455;DHT22;18084;53.028;8.834;2024-03-06T08:01:20;3.60;78.80
31455;DHT22;18084;53.028;8.834;2024-03-06T08:03:46;3.70;78.60
31455;DHT22;18084;53.028;8.834;2024-03-06T08:06:12;3.60;78.60
31455;DHT22;18084;53.028;8.834;2024-03-06T08:08:41;3.60;78.80
31455;DHT22;18084;53.028;8.834;2024-03-06T08:11:10;3.70;78.80
31455;DHT22;18084;53.028;8.834;2024-03-06T08:13:36;3.70;78.70
31455;DHT22;18084;53.028;8.834;2024-03-06T08:16:02;3.70;79.10
31455;DHT22;18084;53.028;8.834;2024-03-06T08:18:27;3.70;78.70
31455;DHT22;18084;53.028;8.834;2024-03-06T08:20:53;3.70;78.80
31455;DHT22;18084;53.028;8.834;2024-03-06T08:23:19;3.70;78.70
31455;DHT22;18084;53.028;8.834;2024-03-06T08:25:45;3.80;78.60
31455;DHT22;18084;53.028;8.834;2024-03-06T08:28:10;3.80;78.40
31455;DHT22;18084;53.028;8.834;2024-03-06T08:30:36;3.80;78.50
31455;DHT22;18084;53.028;8.834;2024-03-06T08:33:01;3.90;78.40
31455;DHT22;18084;53.028;8.834;2024-03-06T08:35:27;3.90;78.20
31455;DHT22;18084;53.028;8.834;2024-03-06T08:37:53;4.00;78.20
31455;DHT22;18084;53.028;8.834;2024-03-06T08:40:18;4.00;77.90
31455;DHT22;18084;53.028;8.834;2024-03-06T08:42:44;4.10;77.90
31455;DHT22;18084;53.028;8.834;2024-03-06T08:45:11;4.20;78.20
31455;DHT22;18084;53.028;8.834;2024-03-06T08:47:36;4.30;77.70
31455;DHT22;18084;53.028;8.834;2024-03-06T08:50:03;4.30;77.50
31455;DHT22;18084;53.028;8.834;2024-03-06T08:52:29;4.30;77.20
31455;DHT22;18084;53.028;8.834;2024-03-06T08:54:56;4.50;77.00
31455;DHT22;18084;53.028;8.834;2024-03-06T08:57:22;4.50;77.10
31455;DHT22;18084;53.028;8.834;2024-03-06T08:59:47;4.50;76.60
31455;DHT22;18084;53.028;8.834;2024-03-06T09:02:14;4.60;76.10
31455;DHT22;18084;53.028;8.834;2024-03-06T09:04:43;4.70;76.20
31455;DHT22;18084;53.028;8.834;2024-03-06T09:07:09;4.80;75.90
31455;DHT22;18084;53.028;8.834;2024-03-06T09:09:36;4.90;75.80
31455;DHT22;18084;53.028;8.834;2024-03-06T09:12:03;5.00;75.00
31455;DHT22;18084;53.028;8.834;2024-03-06T09:14:33;5.00;75.00
31455;DHT22;18084;53.028;8.834;2024-03-06T09:16:59;5.10;75.30
31455;DHT22;18084;53.028;8.834;2024-03-06T09:19:25;5.20;74.90
31455;DHT22;18084;53.028;8.834;2024-03-06T09:21:51;5.20;74.40
31455;DHT22;18084;53.028;8.834;2024-03-06T09:24:16;5.20;74.20
31455;DHT22;18084;53.028;8.834;2024-03-06T09:26:43;5.30;74.70
31455;DHT22;18084;53.028;8.834;2024-03-06T09:29:09;5.30;73.50
31455;DHT22;18084;53.028;8.834;2024-03-06T09:31:35;5.40;73.60
31455;DHT22;18084;53.028;8.834;2024-03-06T09:34:02;5.40;73.50
31455;DHT22;18084;53.028;8.834;2024-03-06T09:36:27;5.50;72.80
31455;DHT22;18084;53.028;8.834;2024-03-06T09:38:53;5.60;73.40
31455;DHT22;18084;53.028;8.834;2024-03-06T09:41:18;5.60;72.90
31455;DHT22;18084;53.028;8.834;2024-03-06T09:43:47;5.60;73.00
31455;DHT22;18084;53.028;8.834;2024-03-06T09:46:13;5.70;73.10
31455;DHT22;18084;53.028;8.834;2024-03-06T09:48:46;5.80;72.90
31455;DHT22;18084;53.028;8.834;2024-03-06T09:51:12;5.90;72.80
31455;DHT22;18084;53.028;8.834;2024-03-06T09:53:39;5.90;72.70
31455;DHT22;18084;53.028;8.834;2024-03-06T09:56:05;5.90;72.90
31455;DHT22;18084;53.028;8.834;2024-03-06T09:58:31;6.10;72.20
31455;DHT22;18084;53.028;8.834;2024-03-06T10:00:59;6.10;72.40
31455;DHT22;18084;53.028;8.834;2024-03-06T10:03:26;6.20;71.90
31455;DHT22;18084;53.028;8.834;2024-03-06T10:05:52;6.20;72.20
31455;DHT22;18084;53.028;8.834;2024-03-06T10:08:19;6.40;71.90
31455;DHT22;18084;53.028;8.834;2024-03-06T10:10:47;6.40;71.70
31455;DHT22;18084;53.028;8.834;2024-03-06T10:13:16;6.50;70.90
31455;DHT22;18084;53.028;8.834;2024-03-06T10:15:48;6.50;70.90
31455;DHT22;18084;53.028;8.834;2024-03-06T10:18:20;6.60;70.90
31455;DHT22;18084;53.028;8.834;2024-03-06T10:20:46;6.60;71.40
31455;DHT22;18084;53.028;8.834;2024-03-06T10:23:12;6.60;71.80
31455;DHT22;18084;53.028;8.834;2024-03-06T10:25:37;6.60;70.70
31455;DHT22;18084;53.028;8.834;2024-03-06T10:28:12;6.70;70.30
31455;DHT22;18084;53.028;8.834;2024-03-06T10:30:39;6.70;70.10
31455;DHT22;18084;53.028;8.834;2024-03-06T10:33:09;6.80;70.20
31455;DHT22;18084;53.028;8.834;2024-03-06T10:35:36;6.80;70.10
31455;DHT22;18084;53.028;8.834;2024-03-06T10:38:04;6.90;69.60
31455;DHT22;18084;53.028;8.834;2024-03-06T10:40:35;7.10;69.10
31455;DHT22;18084;53.028;8.834;2024-03-06T10:43:02;7.20;70.20
31455;DHT22;18084;53.028;8.834;2024-03-06T10:48:04;7.50;68.10
31455;DHT22;18084;53.028;8.834;2024-03-06T10:50:31;7.60;66.80
31455;DHT22;18084;53.028;8.834;2024-03-06T10:52:57;7.70;66.90
31455;DHT22;18084;53.028;8.834;2024-03-06T10:55:24;7.80;67.90
31455;DHT22;18084;53.028;8.834;2024-03-06T10:57:52;7.80;67.00
31455;DHT22;18084;53.028;8.834;2024-03-06T11:00:18;7.90;66.10
31455;DHT22;18084;53.028;8.834;2024-03-06T11:02:46;8.00;66.80
31455;DHT22;18084;53.028;8.834;2024-03-06T11:05:16;8.00;66.30
31455;DHT22;18084;53.028;8.834;2024-03-06T11:07:42;8.00;65.80
31455;DHT22;18084;53.028;8.834;2024-03-06T11:10:09;8.10;65.70
31455;DHT22;18084;53.028;8.834;2024-03-06T11:12:42;8.00;66.10
31455;DHT22;18084;53.028;8.834;2024-03-06T11:15:16;8.00;65.30
31455;DHT22;18084;53.028;8.834;2024-03-06T11:17:44;7.80;66.30
31455;DHT22;18084;53.028;8.834;2024-03-06T11:20:18;7.90;66.10
31455;DHT22;18084;53.028;8.834;2024-03-06T11:28:37;8.10;65.00
31455;DHT22;18084;53.028;8.834;2024-03-06T11:31:04;8.20;64.70
31455;DHT22;18084;53.028;8.834;2024-03-06T11:33:41;8.20;65.30
31455;DHT22;18084;53.028;8.834;2024-03-06T11:36:18;8.40;66.50
31455;DHT22;18084;53.028;8.834;2024-03-06T11:39:04;8.40;64.20
31455;DHT22;18084;53.028;8.834;2024-03-06T11:44:01;8.40;63.40
31455;DHT22;18084;53.028;8.834;2024-03-06T11:46:46;8.50;64.20
31455;DHT22;18084;53.028;8.834;2024-03-06T11:49:21;8.40;63.20
31455;DHT22;18084;53.028;8.834;2024-03-06T11:51:47;8.60;63.20
31455;DHT22;18084;53.028;8.834;2024-03-06T11:54:14;8.70;63.20
31455;DHT22;18084;53.028;8.834;2024-03-06T11:56:44;8.90;62.90
31455;DHT22;18084;53.028;8.834;2024-03-06T11:59:10;9.00;61.90
31455;DHT22;18084;53.028;8.834;2024-03-06T12:01:37;9.10;60.90
31455;DHT22;18084;53.028;8.834;2024-03-06T12:04:03;9.10;60.40
31455;DHT22;18084;53.028;8.834;2024-03-06T12:06:31;9.00;60.30
31455;DHT22;18084;53.028;8.834;2024-03-06T12:08:58;9.00;60.70
31455;DHT22;18084;53.028;8.834;2024-03-06T12:11:23;9.00;60.70
31455;DHT22;18084;53.028;8.834;2024-03-06T12:13:51;9.10;60.70
31455;DHT22;18084;53.028;8.834;2024-03-06T12:16:17;9.40;60.70
31455;DHT22;18084;53.028;8.834;2024-03-06T12:18:42;9.60;59.70
31455;DHT22;18084;53.028;8.834;2024-03-06T12:21:10;9.70;59.50
31455;DHT22;18084;53.028;8.834;2024-03-06T12:23:36;9.70;59.10
31455;DHT22;18084;53.028;8.834;2024-03-06T12:26:08;9.80;60.40
31455;DHT22;18084;53.028;8.834;2024-03-06T12:28:36;9.90;59.60
31455;DHT22;18084;53.028;8.834;2024-03-06T12:31:02;10.20;58.30
31455;DHT22;18084;53.028;8.834;2024-03-06T12:33:28;9.90;57.20
31455;DHT22;18084;53.028;8.834;2024-03-06T12:36:04;10.00;59.80
31455;DHT22;18084;53.028;8.834;2024-03-06T12:38:31;9.90;58.00
31455;DHT22;18084;53.028;8.834;2024-03-06T12:40:56;10.00;58.00
31455;DHT22;18084;53.028;8.834;2024-03-06T12:43:22;10.20;57.20
31455;DHT22;18084;53.028;8.834;2024-03-06T12:45:48;10.20;57.80
31455;DHT22;18084;53.028;8.834;2024-03-06T12:48:13;10.20;56.50
31455;DHT22;18084;53.028;8.834;2024-03-06T12:50:39;10.30;57.10
31455;DHT22;18084;53.028;8.834;2024-03-06T12:53:04;10.20;57.30
31455;DHT22;18084;53.028;8.834;2024-03-06T12:55:30;10.20;56.80
31455;DHT22;18084;53.028;8.834;2024-03-06T12:57:57;10.10;57.10
31455;DHT22;18084;53.028;8.834;2024-03-06T13:00:22;10.00;57.40
31455;DHT22;18084;53.028;8.834;2024-03-06T13:02:49;10.20;58.00
31455;DHT22;18084;53.028;8.834;2024-03-06T13:05:16;10.30;57.40
31455;DHT22;18084;53.028;8.834;2024-03-06T13:07:44;10.40;56.80
31455;DHT22;18084;53.028;8.834;2024-03-06T13:10:10;10.30;57.10
31455;DHT22;18084;53.028;8.834;2024-03-06T13:12:39;10.20;56.70
31455;DHT22;18084;53.028;8.834;2024-03-06T13:15:05;10.30;56.90
31455;DHT22;18084;53.028;8.834;2024-03-06T13:17:33;10.60;58.00
31455;DHT22;18084;53.028;8.834;2024-03-06T13:19:59;10.60;55.70
31455;DHT22;18084;53.028;8.834;2024-03-06T13:22:24;10.50;56.90
31455;DHT22;18084;53.028;8.834;2024-03-06T13:24:50;10.80;57.30
31455;DHT22;18084;53.028;8.834;2024-03-06T13:27:16;10.70;57.40
31455;DHT22;18084;53.028;8.834;2024-03-06T13:29:42;10.80;56.40
31455;DHT22;18084;53.028;8.834;2024-03-06T13:32:07;10.70;56.40
31455;DHT22;18084;53.028;8.834;2024-03-06T13:34:33;10.70;58.00
31455;DHT22;18084;53.028;8.834;2024-03-06T13:36:59;10.70;57.80
31455;DHT22;18084;53.028;8.834;2024-03-06T13:39:25;10.80;56.50
31455;DHT22;18084;53.028;8.834;2024-03-06T13:41:51;10.90;56.10
31455;DHT22;18084;53.028;8.834;2024-03-06T13:44:19;10.80;56.10
31455;DHT22;18084;53.028;8.834;2024-03-06T13:46:46;10.90;57.40
31455;DHT22;18084;53.028;8.834;2024-03-06T13:49:38;10.70;55.80
31455;DHT22;18084;53.028;8.834;2024-03-06T13:52:06;10.60;57.20
31455;DHT22;18084;53.028;8.834;2024-03-06T13:54:33;10.60;56.80
31455;DHT22;18084;53.028;8.834;2024-03-06T13:56:58;10.60;58.40
31455;DHT22;18084;53.028;8.834;2024-03-06T13:59:33;10.60;57.20
31455;DHT22;18084;53.028;8.834;2024-03-06T14:02:00;10.60;57.60
31455;DHT22;18084;53.028;8.834;2024-03-06T14:04:25;10.70;56.50
31455;DHT22;18084;53.028;8.834;2024-03-06T14:06:51;10.70;57.00
31455;DHT22;18084;53.028;8.834;2024-03-06T14:09:17;10.80;56.90
31455;DHT22;18084;53.028;8.834;2024-03-06T14:11:42;10.90;56.40
31455;DHT22;18084;53.028;8.834;2024-03-06T14:14:08;11.00;56.30
31455;DHT22;18084;53.028;8.834;2024-03-06T14:16:34;11.10;56.20
31455;DHT22;18084;53.028;8.834;2024-03-06T14:19:00;11.00;57.50
31455;DHT22;18084;53.028;8.834;2024-03-06T14:21:26;11.20;56.40
31455;DHT22;18084;53.028;8.834;2024-03-06T14:23:52;11.20;55.80
31455;DHT22;18084;53.028;8.834;2024-03-06T14:26:18;11.00;56.30
31455;DHT22;18084;53.028;8.834;2024-03-06T14:28:43;10.90;56.80
31455;DHT22;18084;53.028;8.834;2024-03-06T14:31:09;10.90;56.70
31455;DHT22;18084;53.028;8.834;2024-03-06T14:33:39;10.90;57.00
31455;DHT22;18084;53.028;8.834;2024-03-06T14:36:05;10.90;56.60
31455;DHT22;18084;53.028;8.834;2024-03-06T14:38:32;10.90;55.80
31455;DHT22;18084;53.028;8.834;2024-03-06T14:40:58;10.80;57.00
31455;DHT22;18084;53.028;8.834;2024-03-06T14:43:24;10.90;56.50
31455;DHT22;18084;53.028;8.834;2024-03-06T14:45:50;10.80;57.20
31455;DHT22;18084;53.028;8.834;2024-03-06T14:48:16;10.80;57.60
31455;DHT22;18084;53.028;8.834;2024-03-06T14:50:41;10.90;56.40
31455;DHT22;18084;53.028;8.834;2024-03-06T14:53:07;10.70;56.60
31455;DHT22;18084;53.028;8.834;2024-03-06T14:55:33;10.80;56.80
31455;DHT22;18084;53.028;8.834;2024-03-06T14:57:59;10.70;56.70
31455;DHT22;18084;53.028;8.834;2024-03-06T15:00:27;10.60;56.90
31455;DHT22;18084;53.028;8.834;2024-03-06T15:02:53;10.60;57.80
31455;DHT22;18084;53.028;8.834;2024-03-06T15:05:23;10.60;57.20
31455;DHT22;18084;53.028;8.834;2024-03-06T15:07:49;10.60;57.20
31455;DHT22;18084;53.028;8.834;2024-03-06T15:10:14;10.60;57.10
31455;DHT22;18084;53.028;8.834;2024-03-06T15:12:40;10.30;57.00
31455;DHT22;18084;53.028;8.834;2024-03-06T15:15:08;10.40;57.80
31455;DHT22;18084;53.028;8.834;2024-03-06T15:17:33;10.40;57.40
31455;DHT22;18084;53.028;8.834;2024-03-06T15:19:59;10.40;57.90
31455;DHT22;18084;53.028;8.834;2024-03-06T15:22:25;10.40;60.30
31455;DHT22;18084;53.028;8.834;2024-03-06T15:24:50;10.40;59.60
31455;DHT22;18084;53.028;8.834;2024-03-06T15:27:16;10.50;57.90
31455;DHT22;18084;53.028;8.834;2024-03-06T15:29:42;10.40;58.00
31455;DHT22;18084;53.028;8.834;2024-03-06T15:32:09;10.40;59.40
31455;DHT22;18084;53.028;8.834;2024-03-06T15:34:36;10.50;57.70
31455;DHT22;18084;53.028;8.834;2024-03-06T15:37:01;10.40;58.00
31455;DHT22;18084;53.028;8.834;2024-03-06T15:39:28;10.40;57.80
31455;DHT22;18084;53.028;8.834;2024-03-06T15:41:53;10.40;58.00
31455;DHT22;18084;53.028;8.834;2024-03-06T15:44:19;10.40;59.40
31455;DHT22;18084;53.028;8.834;2024-03-06T15:46:45;10.40;59.90
31455;DHT22;18084;53.028;8.834;2024-03-06T15:49:22;10.30;60.00
31455;DHT22;18084;53.028;8.834;2024-03-06T15:51:50;10.20;60.00
31455;DHT22;18084;53.028;8.834;2024-03-06T15:54:16;10.20;57.80